KL   EN   DA


ASIAQ
Weather Now GREENLAND SURVEY
Sorting:
Along the coast
Alphabetical
Location Updated [WGT/WGST] Temperature [°C] Wind [m/s] Air pressure [hPa] Relative humidity [%] Precipitation [mm]
PresentWind chillSpeedMax
Qaanaaq23.02 11:00-17,8n/a0,9 ⇘1,41006750,0
Kitsissut23.02 11:00-11,1-17,53,6 ⇐13,9100681n/a
Kitsissorsuit23.02 11:00-14,2-23,66,2 ⇖7,2100873n/a
Upernavik23.02 11:00-14,0-19,62,5 ⇐3,8996810,0
Qaarsut23.02 11:00-11,5-17,22,9 ⇖4,899974n/a
Nuussuaq23.02 04:00-12,2-16,82,1 ⇗3,6100853n/a
Qeqertarsuaq23.02 10:00-12,2-29,76,3 ⇐n/a1009830,0
Ilulissat23.02 11:00-11,9-19,14,2 ⇐6,91007560,0
Qasigiannguit23.02 11:00-11,8-19,95,3 ⇖7,41008490,0
Aasiaat23.02 11:00-13,0-20,54,3 ⇑4,81007700,0
Kangerlussuaq23.02 11:00-15,4-25,26,3 ⇙7,5100452n/a
Sisimiut23.02 11:00-10,9-19,56,4 ⇐8,31007390,0
Maniitsoq23.02 11:00-10,6-20,18,0 ⇐11,41004610,0
Sioralik23.02 03:00-9,0-17,36,7 ⇑13,4101061n/a
Qeqertannguaq23.02 11:00-10,0-18,97,3 ⇖11,0n/an/an/a
Kapisillit23.02 11:00-13,7-21,13,9 ⇐6,61000560,0
Nuuk City23.02 11:00-9,7-17,04,9 ⇐10,0997470,0
Ukiivik23.02 11:00-11,5-20,26,2 ⇐6,7100458n/a
Paamiut23.02 11:00-9,5n/a1,0 ⇖1,91002440,0
Narsarsuaq23.02 11:00-9,5n/a0,0 ⇓0,41003460,0
Narsaq23.02 11:00-7,2n/a1,1 ⇙2,2100359n/a
Nunarsuit23.02 11:00-7,5-12,63,1 ⇙4,6100252n/a
Qaqortoq23.02 11:00-7,5-11,62,3 ⇘4,6100460n/a
Angisoq23.02 11:00-7,2-17,111,3 ⇘12,9100361n/a
Prins Christian Sund23.02 11:00-2,6-11,212,4 ⇗16,098843n/a
Nanortalikn/an/an/an/an/an/an/an/a
Ikermiuarsuk23.02 11:000,4-2,62,6 ⇓5,199334n/a
Ikermit23.02 11:00-7,5-20,924,7 ⇘31,998469n/a
Kulusuk23.02 11:00-0,9-8,510,9 ⇐12,6989670,0
Tasiilaq23.02 11:00-6,0n/a0,0 ⇓2,1988810,0
Aputiteeq23.02 11:00-3,9-9,24,1 ⇓5,799540n/a
Ittoqqortoormiitn/an/an/an/an/an/an/an/a
Nerlerit Inaat23.02 11:00-6,1-14,08,0 ⇓11,099764n/a
Daneborg23.02 11:00-14,0-22,55,0 ⇘7,0100054n/a
Danmarkshavn23.02 11:00n/an/an/a11,0n/an/an/a
Henrik Krøyer Holme23.02 11:00-23,1-41,419,0 ⇓23,099880n/a
Station Nord23.02 11:00-24,8-38,38,0 ⇘10,0100278n/a
Kap Morris Jesup23.02 11:00-26,8-36,64,0 ⇒4,0101169n/a

Advanced version
Data source - Operated by - Disclaimer